createdAt,value
2018-07-20T00:01:57.645Z,99.90
2018-07-20T00:04:26.190Z,99.90
2018-07-20T00:06:54.734Z,99.90
2018-07-20T00:09:23.266Z,99.90
2018-07-20T00:11:51.719Z,99.90
2018-07-20T00:14:20.495Z,99.90
2018-07-20T00:16:48.931Z,99.90
2018-07-20T00:19:17.411Z,99.90
2018-07-20T00:21:45.849Z,99.90
2018-07-20T00:24:14.304Z,99.90
2018-07-20T00:26:42.737Z,99.90
2018-07-20T00:29:11.173Z,99.90
2018-07-20T00:31:39.600Z,99.90
2018-07-20T00:34:08.034Z,99.90
2018-07-20T00:36:36.463Z,99.90
2018-07-20T00:39:08.346Z,99.90
2018-07-20T00:41:36.767Z,99.90
2018-07-20T00:44:05.217Z,99.90
2018-07-20T00:46:33.713Z,99.90
2018-07-20T00:49:02.160Z,99.90
2018-07-20T00:51:30.591Z,99.90
2018-07-20T00:53:59.041Z,99.90
2018-07-20T00:56:27.475Z,99.90
2018-07-20T00:58:55.934Z,99.90
2018-07-20T01:01:24.359Z,99.90
2018-07-20T01:03:52.778Z,99.90
2018-07-20T01:06:21.910Z,99.90
2018-07-20T01:08:50.360Z,99.90
2018-07-20T01:11:18.869Z,99.90
2018-07-20T01:13:47.329Z,99.90
2018-07-20T01:16:15.750Z,99.90
2018-07-20T01:18:44.174Z,99.90
2018-07-20T01:21:12.609Z,99.90
2018-07-20T01:23:41.042Z,99.90
2018-07-20T01:26:09.491Z,99.90
2018-07-20T01:28:37.921Z,99.90
2018-07-20T01:31:06.351Z,99.90
2018-07-20T01:33:34.790Z,99.90
2018-07-20T01:36:03.288Z,99.90
2018-07-20T01:38:31.731Z,99.90
2018-07-20T01:43:50.665Z,99.90
2018-07-20T01:46:19.116Z,99.90
2018-07-20T01:48:47.540Z,99.90
2018-07-20T01:51:15.969Z,99.90
2018-07-20T01:53:44.392Z,99.90
2018-07-20T01:56:12.801Z,99.90
2018-07-20T01:58:41.261Z,99.90
2018-07-20T02:01:09.710Z,99.90
2018-07-20T02:03:38.153Z,99.90
2018-07-20T02:06:06.678Z,99.90
2018-07-20T02:08:35.119Z,99.90
2018-07-20T02:11:03.570Z,99.90
2018-07-20T02:13:32.003Z,99.90
2018-07-20T02:16:00.510Z,99.90
2018-07-20T02:18:28.937Z,99.90
2018-07-20T02:20:57.354Z,99.90
2018-07-20T02:23:25.782Z,99.90
2018-07-20T02:25:54.664Z,99.90
2018-07-20T02:28:23.124Z,99.90
2018-07-20T02:30:51.559Z,99.90
2018-07-20T02:33:20.036Z,99.90
2018-07-20T02:35:48.523Z,99.90
2018-07-20T02:38:16.988Z,99.90
2018-07-20T02:40:45.452Z,99.90
2018-07-20T02:43:18.177Z,99.90
2018-07-20T02:45:48.282Z,99.90
2018-07-20T02:48:17.575Z,99.90
2018-07-20T02:50:49.545Z,99.90
2018-07-20T02:53:20.491Z,99.90
2018-07-20T02:55:50.038Z,99.90
2018-07-20T02:58:19.127Z,99.90
2018-07-20T03:00:48.778Z,99.90
2018-07-20T03:03:18.118Z,99.90
2018-07-20T03:05:49.157Z,99.90
2018-07-20T03:08:17.811Z,99.90
2018-07-20T03:10:48.265Z,99.90
2018-07-20T03:13:17.536Z,99.90
2018-07-20T03:15:46.974Z,99.90
2018-07-20T03:18:15.555Z,99.90
2018-07-20T03:20:45.949Z,99.90
2018-07-20T03:23:14.786Z,99.90
2018-07-20T03:25:44.483Z,99.90
2018-07-20T03:28:15.897Z,99.90
2018-07-20T03:30:44.745Z,99.90
2018-07-20T03:33:13.169Z,99.90
2018-07-20T03:35:41.586Z,99.90
2018-07-20T03:38:10.046Z,99.90
2018-07-20T03:40:38.517Z,99.90
2018-07-20T03:43:07.003Z,99.90
2018-07-20T03:45:35.470Z,99.90
2018-07-20T03:48:03.987Z,99.90
2018-07-20T03:50:32.451Z,99.90
2018-07-20T03:53:00.869Z,99.90
2018-07-20T03:55:29.307Z,99.90
2018-07-20T03:57:59.577Z,99.90
2018-07-20T04:00:30.070Z,99.90
2018-07-20T04:03:00.115Z,99.90
2018-07-20T04:05:28.662Z,99.90
2018-07-20T04:07:57.102Z,99.90
2018-07-20T04:10:25.518Z,99.90
2018-07-20T04:12:54.005Z,99.90
2018-07-20T04:15:22.440Z,99.90
2018-07-20T04:17:50.884Z,99.90
2018-07-20T04:20:19.345Z,99.90
2018-07-20T04:22:47.817Z,99.90
2018-07-20T04:25:19.879Z,99.90
2018-07-20T04:27:48.361Z,99.90
2018-07-20T04:30:18.035Z,99.90
2018-07-20T04:32:46.529Z,99.90
2018-07-20T04:35:17.244Z,99.90
2018-07-20T04:37:45.653Z,99.90
2018-07-20T04:40:14.150Z,99.90
2018-07-20T04:42:42.594Z,99.90
2018-07-20T04:45:12.250Z,99.90
2018-07-20T04:47:40.712Z,99.90
2018-07-20T04:50:09.185Z,99.90
2018-07-20T04:52:38.697Z,99.90
2018-07-20T04:55:08.277Z,99.90
2018-07-20T04:57:38.072Z,99.90
2018-07-20T05:00:08.126Z,99.90
2018-07-20T05:02:36.556Z,99.90
2018-07-20T05:05:07.605Z,99.90
2018-07-20T05:10:04.550Z,99.90
2018-07-20T05:12:32.954Z,99.90
2018-07-20T05:15:01.392Z,99.90
2018-07-20T05:17:29.799Z,99.90
2018-07-20T05:19:58.230Z,99.90
2018-07-20T05:22:26.675Z,99.90
2018-07-20T05:24:55.137Z,99.90
2018-07-20T05:27:23.594Z,99.90
2018-07-20T05:29:52.721Z,99.90
2018-07-20T05:32:21.158Z,99.90
2018-07-20T05:34:49.596Z,99.90
2018-07-20T05:37:18.057Z,99.90
2018-07-20T05:39:46.457Z,99.90
2018-07-20T05:42:14.889Z,99.90
2018-07-20T05:44:43.306Z,99.90
2018-07-20T05:47:12.167Z,99.90
2018-07-20T05:49:40.599Z,99.90
2018-07-20T05:52:09.065Z,99.90
2018-07-20T05:54:37.486Z,99.90
2018-07-20T05:57:05.922Z,99.90
2018-07-20T05:59:34.413Z,99.90
2018-07-20T06:02:02.870Z,99.90
2018-07-20T06:04:31.294Z,99.90
2018-07-20T06:06:59.705Z,99.90
2018-07-20T06:09:28.121Z,99.90
2018-07-20T06:11:56.562Z,99.90
2018-07-20T06:14:24.995Z,99.90
2018-07-20T06:19:21.589Z,99.90
2018-07-20T06:21:50.033Z,99.90
2018-07-20T06:24:18.471Z,99.90
2018-07-20T06:26:46.940Z,99.90
2018-07-20T06:29:15.377Z,99.90
2018-07-20T06:31:43.858Z,99.90
2018-07-20T06:34:12.281Z,99.90
2018-07-20T06:36:40.715Z,99.90
2018-07-20T06:39:11.041Z,99.90
2018-07-20T06:44:07.656Z,99.90
2018-07-20T06:46:36.842Z,99.90
2018-07-20T06:49:05.873Z,99.90
2018-07-20T06:51:34.457Z,99.90
2018-07-20T06:54:02.941Z,99.90
2018-07-20T06:56:31.402Z,99.90
2018-07-20T06:58:59.915Z,99.90
2018-07-20T07:01:28.337Z,99.90
2018-07-20T07:03:56.912Z,99.90
2018-07-20T07:06:25.370Z,99.90
2018-07-20T07:08:53.788Z,99.90
2018-07-20T07:11:22.285Z,99.90
2018-07-20T07:13:50.705Z,99.90
2018-07-20T07:16:19.498Z,99.90
2018-07-20T07:18:47.916Z,99.90
2018-07-20T07:21:16.350Z,99.90
2018-07-20T07:23:44.875Z,99.90
2018-07-20T07:26:13.257Z,99.90
2018-07-20T07:28:41.734Z,99.90
2018-07-20T07:31:10.201Z,99.90
2018-07-20T07:33:38.616Z,97.90
2018-07-20T07:36:07.080Z,96.50
2018-07-20T07:38:35.505Z,92.50
2018-07-20T07:41:03.951Z,88.10
2018-07-20T07:43:32.382Z,84.80
2018-07-20T07:46:00.802Z,80.90
2018-07-20T07:48:29.279Z,74.30
2018-07-20T07:50:57.700Z,73.00
2018-07-20T07:53:26.141Z,68.10
2018-07-20T07:55:55.822Z,67.90
2018-07-20T07:58:24.261Z,70.10
2018-07-20T08:00:52.714Z,70.20
2018-07-20T08:03:21.143Z,67.40
2018-07-20T08:05:50.477Z,67.10
2018-07-20T08:08:18.986Z,70.00
2018-07-20T08:10:47.545Z,68.00
2018-07-20T08:13:15.989Z,67.20
2018-07-20T08:15:44.441Z,64.50
2018-07-20T08:18:12.853Z,62.80
2018-07-20T08:20:41.285Z,61.40
2018-07-20T08:25:37.844Z,56.50
2018-07-20T08:28:06.356Z,55.00
2018-07-20T08:30:35.156Z,54.40
2018-07-20T08:33:03.747Z,53.00
2018-07-20T08:35:32.241Z,53.30
2018-07-20T08:38:00.698Z,55.00
2018-07-20T08:40:29.318Z,50.50
2018-07-20T08:42:57.786Z,47.20
2018-07-20T08:45:26.245Z,45.80
2018-07-20T08:47:54.662Z,45.50
2018-07-20T08:50:23.085Z,43.50
2018-07-20T08:52:51.530Z,42.30
2018-07-20T08:55:19.998Z,43.70
2018-07-20T08:57:48.469Z,43.70
2018-07-20T09:00:16.938Z,43.20
2018-07-20T09:02:45.357Z,42.70
2018-07-20T09:05:13.777Z,41.30
2018-07-20T09:07:42.257Z,41.20
2018-07-20T09:10:10.850Z,40.80
2018-07-20T09:12:39.333Z,39.90
2018-07-20T09:15:07.830Z,40.20
2018-07-20T09:17:36.259Z,38.70
2018-07-20T09:20:04.720Z,38.80
2018-07-20T09:22:33.159Z,40.50
2018-07-20T09:25:01.571Z,39.50
2018-07-20T09:27:30.064Z,39.60
2018-07-20T09:29:58.480Z,39.00
2018-07-20T09:32:26.900Z,39.90
2018-07-20T09:34:55.312Z,40.20
2018-07-20T09:37:23.762Z,37.60
2018-07-20T09:39:52.225Z,39.60
2018-07-20T09:44:48.807Z,38.00
2018-07-20T09:47:17.244Z,37.80
2018-07-20T09:49:45.669Z,37.70
2018-07-20T09:52:14.137Z,35.70
2018-07-20T09:54:42.551Z,36.50
2018-07-20T09:57:10.997Z,35.60
2018-07-20T09:59:39.463Z,37.00
2018-07-20T10:02:07.895Z,37.10
2018-07-20T10:04:36.313Z,36.50
2018-07-20T10:07:04.788Z,37.80
2018-07-20T10:09:33.249Z,36.90
2018-07-20T10:12:01.690Z,36.40
2018-07-20T10:14:30.169Z,37.50
2018-07-20T10:16:58.606Z,36.80
2018-07-20T10:19:27.070Z,34.80
2018-07-20T10:21:55.505Z,35.50
2018-07-20T10:24:23.933Z,35.40
2018-07-20T10:26:52.366Z,34.10
2018-07-20T10:29:20.793Z,34.30
2018-07-20T10:31:49.270Z,34.00
2018-07-20T10:34:18.624Z,35.00
2018-07-20T10:36:47.034Z,34.50
2018-07-20T10:39:15.457Z,34.90
2018-07-20T10:41:43.870Z,35.00
2018-07-20T10:44:12.282Z,34.50
2018-07-20T10:46:40.751Z,36.20
2018-07-20T10:49:09.261Z,35.20
2018-07-20T10:51:37.677Z,35.50
2018-07-20T10:54:06.238Z,34.50
2018-07-20T10:56:34.697Z,33.60
2018-07-20T11:01:31.315Z,34.50
2018-07-20T11:03:59.713Z,33.60
2018-07-20T11:06:28.126Z,36.60
2018-07-20T11:08:56.562Z,36.20
2018-07-20T11:11:24.979Z,34.50
2018-07-20T11:13:53.425Z,33.50
2018-07-20T11:16:21.877Z,35.50
2018-07-20T11:18:50.321Z,36.90
2018-07-20T11:21:18.754Z,35.70
2018-07-20T11:23:47.201Z,36.80
2018-07-20T11:26:15.605Z,38.40
2018-07-20T11:28:44.042Z,37.10
2018-07-20T11:31:12.481Z,35.50
2018-07-20T11:33:40.925Z,35.40
2018-07-20T11:36:09.370Z,36.60
2018-07-20T11:38:37.821Z,34.30
2018-07-20T11:41:06.301Z,34.80
2018-07-20T11:43:34.732Z,34.00
2018-07-20T11:46:03.225Z,33.60
2018-07-20T11:48:31.685Z,33.30
2018-07-20T11:51:00.116Z,33.00
2018-07-20T11:53:28.569Z,33.20
2018-07-20T11:55:57.147Z,34.70
2018-07-20T11:58:25.586Z,34.70
2018-07-20T12:00:54.074Z,33.80
2018-07-20T12:03:22.527Z,35.50
2018-07-20T12:05:50.947Z,36.90
2018-07-20T12:08:19.375Z,36.10
2018-07-20T12:10:47.838Z,36.00
2018-07-20T12:13:16.276Z,34.70
2018-07-20T12:15:44.697Z,35.50
2018-07-20T12:18:13.145Z,33.70
2018-07-20T12:20:41.577Z,35.50
2018-07-20T12:23:09.997Z,34.70
2018-07-20T12:25:38.430Z,34.50
2018-07-20T12:28:06.875Z,35.10
2018-07-20T12:30:35.292Z,36.50
2018-07-20T12:33:03.779Z,36.70
2018-07-20T12:35:32.237Z,35.40
2018-07-20T12:38:00.679Z,36.20
2018-07-20T12:40:29.129Z,35.60
2018-07-20T12:42:57.542Z,36.00
2018-07-20T12:45:25.987Z,36.60
2018-07-20T12:47:54.423Z,37.20
2018-07-20T12:50:22.937Z,38.30
2018-07-20T12:52:51.519Z,37.60
2018-07-20T12:55:20.052Z,38.40
2018-07-20T12:57:49.794Z,37.30
2018-07-20T13:00:18.262Z,38.50
2018-07-20T13:02:46.709Z,38.40
2018-07-20T13:05:15.165Z,38.60
2018-07-20T13:07:43.614Z,35.50
2018-07-20T13:10:12.090Z,35.70
2018-07-20T13:12:40.547Z,35.20
2018-07-20T13:15:09.002Z,35.60
2018-07-20T13:17:37.458Z,36.00
2018-07-20T13:20:06.202Z,36.00
2018-07-20T13:22:34.754Z,36.60
2018-07-20T13:25:03.247Z,37.10
2018-07-20T13:27:31.665Z,36.40
2018-07-20T13:30:00.091Z,36.50
2018-07-20T13:32:28.572Z,36.10
2018-07-20T13:34:57.004Z,37.40
2018-07-20T13:37:25.426Z,37.00
2018-07-20T13:39:53.900Z,37.10
2018-07-20T13:42:22.295Z,36.70
2018-07-20T13:44:50.947Z,37.00
2018-07-20T13:47:21.298Z,37.90
2018-07-20T13:49:49.733Z,38.10
2018-07-20T13:54:46.316Z,35.90
2018-07-20T13:57:14.758Z,35.80
2018-07-20T13:59:43.255Z,36.40
2018-07-20T14:02:11.717Z,35.40
2018-07-20T14:04:40.867Z,35.60
2018-07-20T14:07:09.289Z,35.80
2018-07-20T14:09:37.758Z,36.80
2018-07-20T14:12:06.207Z,36.40
2018-07-20T14:14:34.622Z,35.30
2018-07-20T14:17:03.083Z,35.70
2018-07-20T14:19:31.531Z,36.00
2018-07-20T14:21:59.969Z,37.20
2018-07-20T14:24:28.392Z,36.30
2018-07-20T14:26:56.829Z,35.60
2018-07-20T14:29:25.269Z,36.60
2018-07-20T14:31:53.714Z,37.00
2018-07-20T14:34:22.137Z,36.60
2018-07-20T14:36:50.598Z,36.90
2018-07-20T14:39:19.019Z,36.00
2018-07-20T14:44:15.562Z,38.20
2018-07-20T14:46:43.980Z,37.30
2018-07-20T14:49:12.459Z,38.20
2018-07-20T14:51:40.891Z,37.00
2018-07-20T14:54:09.359Z,37.50
2018-07-20T14:56:37.810Z,37.50
2018-07-20T14:59:06.289Z,37.40
2018-07-20T15:01:34.715Z,37.60
2018-07-20T15:04:03.158Z,37.90
2018-07-20T15:06:31.611Z,38.90
2018-07-20T15:09:00.039Z,38.80
2018-07-20T15:11:28.630Z,39.80
2018-07-20T15:13:57.081Z,39.30
2018-07-20T15:16:25.501Z,39.20
2018-07-20T15:18:53.993Z,39.20
2018-07-20T15:21:22.503Z,39.30
2018-07-20T15:23:50.918Z,38.10
2018-07-20T15:26:19.368Z,38.50
2018-07-20T15:28:47.797Z,39.20
2018-07-20T15:31:16.260Z,37.80
2018-07-20T15:33:44.716Z,37.80
2018-07-20T15:36:13.246Z,36.70
2018-07-20T15:38:41.690Z,37.50
2018-07-20T15:41:10.307Z,36.50
2018-07-20T15:43:39.936Z,36.40
2018-07-20T15:46:08.411Z,37.50
2018-07-20T15:48:37.974Z,39.30
2018-07-20T15:51:07.014Z,37.00
2018-07-20T15:53:36.274Z,37.30
2018-07-20T15:56:04.027Z,38.20
2018-07-20T15:58:32.514Z,38.40
2018-07-20T16:01:00.958Z,37.70
2018-07-20T16:03:29.393Z,39.10
2018-07-20T16:05:58.112Z,38.20
2018-07-20T16:08:26.493Z,38.20
2018-07-20T16:10:54.941Z,38.80
2018-07-20T16:13:23.438Z,37.70
2018-07-20T16:15:51.909Z,38.50
2018-07-20T16:20:48.518Z,37.70
2018-07-20T16:23:19.416Z,37.20
2018-07-20T16:25:49.447Z,37.20
2018-07-20T16:28:20.123Z,37.40
2018-07-20T16:30:50.291Z,39.10
2018-07-20T16:33:20.151Z,38.90
2018-07-20T16:35:50.207Z,40.00
2018-07-20T16:38:21.094Z,38.80
2018-07-20T16:40:49.565Z,38.70
2018-07-20T16:43:18.003Z,38.30
2018-07-20T16:45:46.414Z,39.30
2018-07-20T16:48:14.817Z,39.70
2018-07-20T16:50:43.353Z,40.00
2018-07-20T16:53:11.753Z,39.80
2018-07-20T16:55:40.170Z,40.50
2018-07-20T16:58:08.624Z,42.00
2018-07-20T17:00:37.088Z,43.30
2018-07-20T17:03:05.501Z,41.10
2018-07-20T17:05:34.000Z,42.70
2018-07-20T17:08:02.541Z,42.70
2018-07-20T17:10:31.045Z,45.30
2018-07-20T17:12:59.494Z,47.90
2018-07-20T17:15:27.975Z,48.50
2018-07-20T17:17:56.422Z,48.50
2018-07-20T17:20:24.846Z,48.70
2018-07-20T17:22:53.269Z,49.90
2018-07-20T17:25:21.728Z,51.60
2018-07-20T17:27:50.232Z,51.00
2018-07-20T17:30:18.758Z,48.20
2018-07-20T17:32:47.196Z,48.20
2018-07-20T17:35:15.646Z,47.40
2018-07-20T17:37:44.104Z,47.70
2018-07-20T17:40:12.652Z,49.00
2018-07-20T17:42:41.082Z,49.20
2018-07-20T17:45:09.580Z,49.40
2018-07-20T17:47:38.018Z,49.60
2018-07-20T17:50:06.503Z,50.80
2018-07-20T17:52:34.962Z,52.70
2018-07-20T17:55:04.742Z,55.70
2018-07-20T17:57:33.161Z,60.20
2018-07-20T18:00:01.706Z,73.80
2018-07-20T18:02:30.358Z,91.20
2018-07-20T18:04:58.885Z,97.00
2018-07-20T18:07:27.512Z,99.90
2018-07-20T18:09:55.976Z,99.40
2018-07-20T18:12:24.457Z,99.90
2018-07-20T18:14:53.969Z,99.90
2018-07-20T18:17:22.570Z,99.90
2018-07-20T18:19:51.023Z,99.90
2018-07-20T18:22:19.617Z,99.90
2018-07-20T18:24:48.049Z,99.90
2018-07-20T18:27:16.723Z,99.20
2018-07-20T18:29:45.049Z,97.20
2018-07-20T18:32:13.505Z,96.50
2018-07-20T18:34:41.985Z,95.90
2018-07-20T18:37:10.474Z,95.70
2018-07-20T18:39:38.934Z,96.40
2018-07-20T18:42:07.450Z,97.20
2018-07-20T18:44:36.071Z,96.50
2018-07-20T18:47:04.666Z,96.50
2018-07-20T18:49:33.333Z,98.20
2018-07-20T18:52:01.974Z,98.00
2018-07-20T18:54:33.656Z,97.90
2018-07-20T18:57:02.180Z,97.10
2018-07-20T18:59:30.661Z,96.00
2018-07-20T19:01:59.095Z,96.30
2018-07-20T19:04:28.908Z,96.60
2018-07-20T19:06:57.551Z,97.00
2018-07-20T19:09:28.498Z,95.30
2018-07-20T19:11:57.247Z,95.50
2018-07-20T19:14:26.996Z,94.70
2018-07-20T19:16:55.995Z,93.50
2018-07-20T19:19:24.645Z,93.60
2018-07-20T19:21:53.308Z,95.20
2018-07-20T19:24:21.845Z,95.20
2018-07-20T19:26:50.461Z,94.40
2018-07-20T19:29:19.169Z,94.10
2018-07-20T19:31:47.722Z,93.70
2018-07-20T19:34:16.296Z,95.00
2018-07-20T19:36:45.023Z,97.20
2018-07-20T19:39:13.765Z,95.90
2018-07-20T19:41:42.254Z,97.40
2018-07-20T19:44:12.284Z,96.60
2018-07-20T19:46:45.333Z,97.90
2018-07-20T19:49:13.877Z,98.70
2018-07-20T19:51:42.379Z,98.40
2018-07-20T19:54:10.876Z,99.90
2018-07-20T19:56:39.309Z,99.90
2018-07-20T19:59:13.706Z,99.90
2018-07-20T20:01:42.153Z,99.90
2018-07-20T20:04:10.632Z,99.90
2018-07-20T20:06:39.077Z,99.90
2018-07-20T20:09:09.290Z,99.90
2018-07-20T20:11:37.768Z,99.90
2018-07-20T20:16:34.556Z,99.90
2018-07-20T20:19:04.416Z,99.90
2018-07-20T20:21:32.902Z,99.90
2018-07-20T20:24:01.346Z,99.90
2018-07-20T20:26:29.781Z,99.90
2018-07-20T20:28:58.332Z,99.90
2018-07-20T20:31:26.794Z,99.90
2018-07-20T20:33:55.288Z,99.90
2018-07-20T20:36:24.676Z,99.90
2018-07-20T20:38:54.288Z,99.90
2018-07-20T20:41:23.468Z,99.90
2018-07-20T20:43:52.612Z,99.90
2018-07-20T20:46:21.498Z,99.90
2018-07-20T20:48:50.641Z,99.90
2018-07-20T20:51:19.977Z,99.90
2018-07-20T20:53:48.907Z,99.90
2018-07-20T20:56:17.938Z,99.90
2018-07-20T20:58:47.253Z,99.90
2018-07-20T21:01:16.167Z,99.90
2018-07-20T21:03:45.142Z,99.90
2018-07-20T21:06:14.217Z,99.90
2018-07-20T21:08:43.217Z,99.90
2018-07-20T21:13:40.949Z,99.90
2018-07-20T21:16:09.880Z,99.90
2018-07-20T21:18:38.950Z,99.90
2018-07-20T21:21:08.033Z,99.90
2018-07-20T21:23:36.964Z,99.90
2018-07-20T21:26:06.177Z,99.90
2018-07-20T21:28:34.670Z,99.90
2018-07-20T21:31:03.134Z,99.90
2018-07-20T21:33:31.591Z,99.90
2018-07-20T21:36:00.051Z,99.90
2018-07-20T21:38:28.740Z,99.90
2018-07-20T21:40:57.546Z,99.90
2018-07-20T21:43:26.004Z,99.90
2018-07-20T21:45:54.433Z,99.90
2018-07-20T21:48:22.875Z,99.90
2018-07-20T21:50:51.326Z,99.90
2018-07-20T21:53:19.770Z,99.90
2018-07-20T21:55:48.204Z,99.90
2018-07-20T21:58:16.682Z,99.90
2018-07-20T22:00:45.136Z,99.90
2018-07-20T22:03:13.600Z,99.90
2018-07-20T22:05:42.026Z,99.90
2018-07-20T22:08:16.105Z,99.90
2018-07-20T22:10:44.522Z,99.90
2018-07-20T22:13:13.040Z,99.90
2018-07-20T22:15:41.480Z,99.90
2018-07-20T22:18:13.902Z,99.90
2018-07-20T22:20:42.858Z,99.90
2018-07-20T22:23:13.397Z,99.90
2018-07-20T22:25:41.949Z,99.90
2018-07-20T22:28:10.382Z,99.90
2018-07-20T22:30:38.811Z,99.90
2018-07-20T22:33:07.353Z,99.90
2018-07-20T22:35:35.815Z,99.90
2018-07-20T22:38:04.262Z,99.90
2018-07-20T22:40:32.674Z,99.90
2018-07-20T22:43:02.135Z,99.90
2018-07-20T22:45:30.967Z,99.90
2018-07-20T22:47:59.402Z,99.90
2018-07-20T22:50:27.901Z,99.90
2018-07-20T22:52:56.317Z,99.90
2018-07-20T22:57:52.845Z,99.90
2018-07-20T23:00:21.370Z,99.90
2018-07-20T23:02:49.791Z,99.90
2018-07-20T23:05:18.214Z,99.90
2018-07-20T23:07:46.625Z,99.90
2018-07-20T23:10:15.095Z,99.90
2018-07-20T23:12:43.554Z,99.90
2018-07-20T23:15:12.004Z,99.90
2018-07-20T23:17:40.450Z,99.90
2018-07-20T23:20:08.866Z,99.90
2018-07-20T23:22:37.282Z,99.90
2018-07-20T23:25:05.745Z,99.90
2018-07-20T23:27:34.151Z,99.90
2018-07-20T23:30:02.584Z,99.90
2018-07-20T23:32:31.009Z,99.90
2018-07-20T23:34:59.467Z,99.90
2018-07-20T23:37:27.910Z,99.90
2018-07-20T23:39:56.328Z,99.90
2018-07-20T23:42:24.789Z,99.90
2018-07-20T23:44:53.208Z,99.90
2018-07-20T23:47:21.644Z,99.90
2018-07-20T23:49:50.313Z,99.90
2018-07-20T23:52:18.741Z,99.90
2018-07-20T23:54:48.412Z,99.90
2018-07-20T23:57:17.010Z,99.90
2018-07-20T23:59:45.535Z,99.90
